TAF LEBG
LEBG 270800Z 2709/2809 34012KT 9999 SCT008 BKN015 TX04/2714Z TN01/2806Z PROB30 TEMPO 2709/2717 34015G25KT 4000 SHRA BR SCT020TCU PROB40 TEMPO 2709/2809 0800 SN BKN005=
METAR LEBG
LEBG 270830Z 34016KT 310V010 9999 FEW006 BKN060 01/M00 Q1005 RESN=
LEBG 270800Z 33013G25KT 290V360 9999 3200N -SN SCT006 SCT045 BKN055 02/00 Q1005=
LEBG 270730Z 30009KT 280V340 9999 -RA SCT007 SCT018 BKN047 01/01 Q1003 RERA=
LEBG 270700Z 27010KT 230V310 9999 -RA BKN006 02/01 Q1003=
LEBG 270630Z AUTO 25014KT 230V290 9999 SCT007 02/01 Q1002=
WC LEBG
WS LEBG
WV LEBG